ADDS METAR Data INFO
IDs: Format: Raw Decoded Include TAF

Data at: 1552 UTC 12 Dec 2017

KOLU 121456Z AUTO 00000KT 10SM OVC036 M07/M08 A3029 RMK AO2 SLP280 T10721083 56015 FZRANO
KOLU 121356Z AUTO 24003KT 10SM FEW038 M11/M12 A3031 RMK AO2 SLP287 T11061122 FZRANO
KOLU 121256Z AUTO 29003KT 10SM CLR M11/M12 A3032 RMK AO2 SLP290 T11061117 FZRANO
KOLU 121156Z AUTO 26005KT 10SM CLR M10/M12 A3034 RMK AO2 SLP295 T11001117 11033 21100 56013 FZRANO
KOLU 121056Z AUTO 27005KT 10SM CLR M07/M09 A3035 RMK AO2 SLP297 T10721089 FZRANO
KOLU 120956Z AUTO 26006KT 10SM CLR M07/M09 A3036 RMK AO2 SLP301 T10721089 FZRANO
KOLU 120856Z AUTO 30007KT 10SM CLR M07/M09 A3038 RMK AO2 SLP306 T10671089 55002 FZRANO
KOLU 120756Z AUTO 34008KT 10SM CLR M05/M08 A3037 RMK AO2 SLP301 T10501078 FZRANO
KOLU 120656Z AUTO 33013KT 10SM CLR M04/M07 A3038 RMK AO2 SLP306 T10391067 FZRANO
KOLU 120556Z AUTO 33006KT 10SM CLR M03/M06 A3038 RMK AO2 SLP304 T10331056 10044 21033 53020 FZRANO
KOLU 120456Z AUTO 33014KT 10SM FEW031 M02/M04 A3036 RMK AO2 SLP295 T10171044 400891022 FZRANO
KOLU 120356Z AUTO 33015G21KT 10SM CLR M01/M03 A3034 RMK AO2 SLP287 T10061033 FZRANO
KOLU 120256Z AUTO 34010KT 10SM CLR 01/M04 A3032 RMK AO2 SLP282 T00061044 51028 FZRANO
KOLU 120156Z AUTO 33017KT 10SM BKN039 03/M04 A3030 RMK AO2 PK WND 32029/0135 SLP274 T00281044
KOLU 120056Z AUTO 32019G26KT 10SM BKN037 04/M03 A3026 RMK AO2 PK WND 34029/0011 SLP259 T00391028
KOLU 120015Z AUTO 32019G29KT 10SM SCT027 OVC035 04/M02 A3025 RMK AO2 PK WND 34029/0011
KOLU 112356Z AUTO 33022G28KT 10SM OVC027 04/M01 A3024 RMK AO2 PK WND 32030/2343 SLP251 60000 T00441011 10083 20044 51039
KOLU 112256Z AUTO 33021G30KT 10SM OVC023 05/M01 A3021 RMK AO2 PK WND 32032/2201 SLP244 T00501006
KOLU 112156Z AUTO 33027G33KT 10SM BKN023 OVC030 05/00 A3017 RMK AO2 PK WND 32037/2133 RAB33E43 SLP229 P0000 T00500000
KOLU 112131Z AUTO 33025G31KT 10SM BKN029 OVC035 06/00 A3014 RMK AO2 PK WND 33033/2115
KOLU 112056Z AUTO 33028G35KT 10SM BKN034 OVC041 07/M01 A3012 RMK AO2 PK WND 33036/1958 SLP211 T00671006 53022
KOLU 111956Z AUTO 32026G31KT 10SM OVC034 07/M01 A3008 RMK AO2 PK WND 33035/1923 SLP199 T00671011
KOLU 111856Z AUTO 33022G33KT 10SM BKN038 OVC047 07/M01 A3008 RMK AO2 PK WND 33037/1821 SLP196 T00721011
KOLU 111756Z AUTO 32028G35KT 10SM OVC044 08/M02 A3005 RMK AO2 PK WND 32036/1725 SLP187 T00831017 10089 20050 51015
KOLU 111656Z AUTO 32022G30KT 10SM OVC046 09/M02 A3005 RMK AO2 PK WND 32034/1610 SLP187 T00891022
KOLU 111556Z AUTO 32027G35KT 10SM CLR 08/M02 A3002 RMK AO2 PK WND 31038/1532 SLP177 T00831022
KOLU 111456Z AUTO 31023G29KT 10SM FEW060 07/M04 A3000 RMK AO2 PK WND 32038/1424 SLP173 T00721044 53009
KOLU 111356Z AUTO 29015KT 10SM CLR 07/M07 A2999 RMK AO2 PK WND 30030/1329 SLP167 T00721072
KOLU 111256Z AUTO 29013KT 10SM CLR 07/M07 A2997 RMK AO2 SLP160 T00721072
KOLU 111156Z AUTO 27010KT 10SM CLR 05/M08 A2997 RMK AO2 SLP161 T00501078 10050 21022 56007
KOLU 111056Z AUTO 27007KT 10SM CLR 00/M08 A2998 RMK AO2 SLP161 T00001078 FZRANO
KOLU 110956Z AUTO 25007KT 10SM CLR 02/M09 A2998 RMK AO2 SLP161 T00171089 FZRANO
KOLU 110856Z AUTO 25008KT 10SM CLR 02/M08 A3000 RMK AO2 SLP165 T00221083 56013 FZRANO
KOLU 110756Z AUTO 24006KT 10SM CLR 03/M08 A3001 RMK AO2 SLP170 T00281083
KOLU 110656Z AUTO 23007KT 10SM CLR 02/M08 A3002 RMK AO2 SLP172 T00221083 FZRANO
KOLU 110556Z AUTO 25006KT 10SM CLR 02/M09 A3004 RMK AO2 SLP180 T00171089 10056 21028 56017 FZRANO
KOLU 110456Z AUTO 26006KT 10SM CLR M02/M07 A3004 RMK AO2 SLP185 T10171072 401391028 FZRANO
KOLU 110356Z AUTO 26003KT 10SM CLR 01/M07 A3006 RMK AO2 SLP192 T00061072 FZRANO